createdAt,value
2022-09-01T17:48:15.149Z,41.23
2022-09-01T17:50:59.489Z,40.09
2022-09-01T17:53:50.600Z,39.34
2022-09-01T17:57:11.022Z,38.66
2022-09-01T17:59:44.393Z,38.13
2022-09-01T18:02:46.529Z,37.93
2022-09-01T18:05:19.723Z,37.67
2022-09-01T18:08:07.068Z,37.52
2022-09-01T18:10:50.227Z,37.74
2022-09-01T18:13:51.452Z,37.42
2022-09-01T18:16:21.214Z,37.53
2022-09-01T18:18:51.041Z,37.48
2022-09-01T18:21:26.252Z,37.47
2022-09-01T18:24:01.535Z,37.56
2022-09-01T18:26:35.244Z,37.36
2022-09-01T18:29:05.036Z,37.56
2022-09-01T18:31:35.803Z,37.34
2022-09-01T18:34:03.075Z,37.41
2022-09-01T18:36:49.868Z,37.75
2022-09-01T18:39:20.117Z,37.67
2022-09-01T18:41:55.893Z,37.97
2022-09-01T18:44:50.919Z,38.09
2022-09-01T18:47:29.888Z,38.01
2022-09-01T18:50:27.882Z,37.98
2022-09-01T18:53:13.332Z,38.26
2022-09-01T18:56:08.385Z,38.41
2022-09-01T18:58:51.714Z,38.35
2022-09-01T19:02:00.482Z,38.41
2022-09-01T19:04:42.452Z,38.31
2022-09-01T19:07:15.787Z,38.52
2022-09-01T19:09:47.853Z,38.48
2022-09-01T19:12:35.977Z,38.72
2022-09-01T19:15:15.985Z,38.70
2022-09-01T19:18:05.078Z,38.63
2022-09-01T19:21:09.675Z,38.76
2022-09-01T19:24:09.744Z,38.81
2022-09-01T19:26:46.249Z,38.60
2022-09-01T19:29:17.477Z,39.05
2022-09-01T19:31:49.301Z,38.70
2022-09-01T19:34:20.237Z,39.02
2022-09-01T19:36:56.160Z,38.72
2022-09-01T19:39:45.015Z,38.93
2022-09-01T19:42:16.334Z,39.20
2022-09-01T19:45:07.530Z,39.06
2022-09-01T19:47:55.808Z,39.02
2022-09-01T19:50:31.270Z,38.96
2022-09-01T19:53:23.667Z,39.17
2022-09-01T19:55:50.839Z,39.27
2022-09-01T19:58:27.497Z,39.11
2022-09-01T20:00:58.420Z,39.17
2022-09-01T20:03:50.447Z,39.22
2022-09-01T20:06:34.136Z,39.29
2022-09-01T20:09:22.624Z,39.20
2022-09-01T20:12:22.375Z,39.20
2022-09-01T20:15:06.834Z,39.38
2022-09-01T20:17:49.976Z,39.72
2022-09-01T20:20:24.461Z,39.62
2022-09-01T20:23:27.394Z,39.72
2022-09-01T20:26:25.395Z,39.54
2022-09-01T20:29:17.386Z,39.46
2022-09-01T20:31:51.338Z,39.96
2022-09-01T20:34:25.132Z,39.63
2022-09-01T20:37:06.097Z,39.90
2022-09-01T20:40:08.128Z,39.52
2022-09-01T20:42:59.275Z,39.79
2022-09-01T20:45:28.424Z,39.60
2022-09-01T20:48:02.062Z,39.65
2022-09-01T20:50:50.648Z,39.81
2022-09-01T20:53:32.961Z,39.81
2022-09-01T20:56:07.485Z,39.63
2022-09-01T20:58:40.286Z,39.86
2022-09-01T21:01:19.474Z,39.99
2022-09-01T21:04:08.156Z,39.88
2022-09-01T21:06:44.185Z,39.96
2022-09-01T21:09:29.019Z,40.02
2022-09-01T21:12:21.830Z,39.88
2022-09-01T21:14:49.208Z,39.79
2022-09-01T21:17:25.906Z,39.98
2022-09-01T21:20:11.941Z,39.74
2022-09-01T21:22:39.228Z,40.00
2022-09-01T21:25:06.731Z,39.79
2022-09-01T21:28:01.104Z,40.04
2022-09-01T21:30:33.952Z,39.86
2022-09-01T21:33:02.872Z,40.04
2022-09-01T21:35:30.215Z,40.16
2022-09-01T21:37:57.413Z,40.09
2022-09-01T21:40:26.433Z,40.14
2022-09-01T21:43:05.037Z,40.21
2022-09-01T21:45:35.376Z,40.12
2022-09-01T21:48:03.082Z,40.25
2022-09-01T21:50:30.319Z,39.97
2022-09-01T21:52:57.557Z,39.99
2022-09-01T21:55:24.960Z,40.36
2022-09-01T21:57:52.885Z,40.35
2022-09-01T22:00:24.042Z,40.52
2022-09-01T22:02:52.311Z,40.24
2022-09-01T22:05:20.785Z,40.21
2022-09-01T22:07:48.175Z,40.56
2022-09-01T22:10:17.994Z,40.42
2022-09-01T22:12:47.616Z,40.30
2022-09-01T22:15:18.208Z,40.67
2022-09-01T22:17:46.862Z,40.53
2022-09-01T22:20:18.507Z,40.85
2022-09-01T22:22:46.420Z,40.67
2022-09-01T22:25:17.499Z,40.53
2022-09-01T22:27:44.775Z,40.81
2022-09-01T22:30:13.250Z,40.90
2022-09-01T22:32:45.173Z,40.94
2022-09-01T22:35:13.968Z,40.69
2022-09-01T22:37:41.378Z,41.02
2022-09-01T22:40:09.531Z,41.08
2022-09-01T22:42:36.935Z,40.89
2022-09-01T22:45:06.093Z,40.91
2022-09-01T22:47:35.275Z,40.84
2022-09-01T22:50:08.837Z,41.13
2022-09-01T22:52:37.117Z,41.23
2022-09-01T22:55:06.180Z,41.09
2022-09-01T22:57:34.494Z,40.92
2022-09-01T23:00:02.189Z,40.99
2022-09-01T23:02:30.235Z,41.10
2022-09-01T23:04:57.521Z,41.02
2022-09-01T23:07:24.702Z,41.03
2022-09-01T23:09:51.891Z,40.94
2022-09-01T23:12:19.079Z,41.15
2022-09-01T23:14:46.278Z,40.95
2022-09-01T23:17:13.451Z,41.10
2022-09-01T23:19:40.652Z,41.02
2022-09-01T23:22:08.460Z,41.14
2022-09-01T23:24:35.610Z,41.09
2022-09-01T23:27:03.424Z,41.28
2022-09-01T23:29:30.897Z,40.90
2022-09-01T23:31:58.112Z,40.92
2022-09-01T23:34:25.516Z,41.13
2022-09-01T23:36:52.719Z,41.19
2022-09-01T23:39:19.907Z,41.02
2022-09-01T23:41:47.385Z,41.01
2022-09-01T23:44:15.890Z,41.15
2022-09-01T23:46:45.574Z,40.81
2022-09-01T23:49:15.815Z,40.99
2022-09-01T23:51:44.223Z,41.01
2022-09-01T23:54:11.853Z,40.91
2022-09-01T23:56:39.466Z,40.93
2022-09-01T23:59:07.464Z,40.90
